ADDS METAR Data INFO
IDs: Format: Raw Decoded Include TAF

Data at: 0140 UTC 26 Feb 2018

KBDL 260051Z 34007KT 10SM OVC017 03/03 A3001 RMK AO2 SLP163 T00330028 $
KBDL 260035Z 35005KT 10SM OVC016 03/02 A3000 RMK AO2 T00330022 $
KBDL 252351Z 35007KT 10SM BKN011 OVC039 03/03 A2999 RMK AO2 SLP156 60007 T00330028 10039 20033 55007 $
KBDL 252310Z 36007KT 10SM FEW007 OVC011 03/03 A2997 RMK AO2 T00330028 $
KBDL 252251Z 02009KT 10SM BKN006 BKN011 OVC020 03/03 A2996 RMK AO2 SLP148 T00330028 $
KBDL 252220Z 35009KT 10SM BKN006 OVC017 04/03 A2998 RMK AO2 T00390033 $
KBDL 252151Z 36007KT 10SM BKN004 OVC019 04/03 A2998 RMK AO2 DZE11 SLP154 P0000 T00390033 $
KBDL 252119Z 01008KT 10SM OVC004 04/03 A3000 RMK AO2 DZE11 P0000 T00390033 $
KBDL 252051Z 35007KT 2SM -DZ BR OVC004 04/03 A3001 RMK AO2 SFC VIS 4 RAE42DZB48 PRESRR SLP163 P0001 60007 T00390033 56003 $
KBDL 252030Z 02008KT 2SM -RA BR BKN005 BKN009 OVC015 04/03 A2997 RMK AO2 P0001 T00390033 $
KBDL 251951Z 35008KT 2SM -RA BR FEW005 OVC011 04/03 A3001 RMK AO2 SFC VIS 2 1/2 RAE22B51 SLP165 P0001 T00390033 $
KBDL 251919Z 33011KT 9SM -RA SCT005 OVC010 04/03 A3001 RMK AO2 P0001 T00390033 $
KBDL 251851Z 02007KT 6SM -RA BR BKN007 OVC016 04/03 A2999 RMK AO2 SLP157 P0005 T00390033 $
KBDL 251817Z 34008KT 5SM -RA BR BKN005 BKN008 OVC013 04/03 A3002 RMK AO2 P0004 T00390033 $
KBDL 251804Z 04008KT 4SM RA BR FEW007 OVC014 04/03 A2999 RMK AO2 P0002 T00390033 $
KBDL 251751Z 36008KT 4SM RA BR FEW006 OVC015 04/03 A3002 RMK AO2 SLP166 P0003 60045 T00390033 10039 20022 58033 $
KBDL 251719Z 04007KT 7SM -RA SCT005 OVC017 04/03 A3004 RMK AO2 P0001 T00390033 $
KBDL 251700Z 04005KT 4SM -RA BR SCT004 BKN014 OVC020 04/03 A3007 RMK AO2 P0001 T00390033 $
KBDL 251651Z 03007KT 4SM RA BR FEW008 OVC016 03/03 A3007 RMK AO2 PRESFR SLP185 P0010 T00330028 $
KBDL 251551Z 06004KT 4SM RA BR FEW008 OVC016 04/03 A3011 RMK AO2 SLP198 P0008 T00390028 $
KBDL 251548Z 06005KT 5SM RA BR FEW008 OVC016 04/03 A3011 RMK AO2 P0007 $
KBDL 251510Z 02006KT 3SM -RA BR FEW008 OVC014 03/03 A3012 RMK AO2 SFC VIS 4 P0002 T00280028 $
KBDL 251458Z 02006KT 3SM RA BR BKN012 OVC018 03/03 A3013 RMK AO2 P0001 T00280028 $
KBDL 251451Z 01004KT 3SM -RA BR FEW009 BKN015 OVC020 03/03 A3014 RMK AO2 SFC VIS 5 SLP209 P0009 60024 T00280028 58014 $
KBDL 251425Z 05005KT 3SM RA BR FEW009 SCT013 OVC017 02/02 A3014 RMK AO2 P0006 T00220022 $
KBDL 251357Z 35003KT 3SM RA BR FEW009 BKN013 OVC019 02/02 A3019 RMK AO2 P0002 T00220017 $
KBDL 251351Z 34003KT 3SM RA BR BKN013 OVC019 02/02 A3019 RMK AO2 SLP225 P0010 T00220022 $
KBDL 251348Z 34003KT 3SM R06/5000VP6000FT RA BR BKN013 OVC019 02/02 A3019 RMK AO2 P0010 $
KBDL 251251Z 04006KT 5SM -RA BR BKN017 OVC022 02/02 A3019 RMK AO2 SLP223 P0005 T00220017 $
KBDL 251151Z 36007KT 6SM RA BR BKN016 OVC032 02/02 A3022 RMK AO2 SLP236 P0006 60019 70023 T00220017 10044 20022 58004 $
KBDL 251111Z 01005KT 6SM RA BR BKN020 BKN037 OVC065 02/02 A3021 RMK AO2 P0002 T00220017 $
KBDL 251051Z 01004KT 5SM -RA BR FEW022 BKN037 OVC070 02/02 A3022 RMK AO2 SLP235 P0009 T00220017 $
KBDL 250951Z 35005KT 5SM RA BR OVC035 03/01 A3026 RMK AO2 SLP249 P0004 T00280011 $
KBDL 250851Z 36005KT 10SM -RA BKN037 OVC046 04/00 A3024 RMK AO2 RAB49 SLP240 P0000 60000 T00390000 58002 $
KBDL 250751Z 02007KT 10SM SCT034 OVC050 04/01 A3023 RMK AO2 SLP239 T00390006 $
KBDL 250651Z 01006KT 10SM BKN055 OVC100 04/01 A3027 RMK AO2 SLP251 T00440006 $
KBDL 250551Z 04005KT 10SM FEW070 BKN100 05/02 A3024 RMK AO2 SLP242 T00500017 10056 20039 50005 $
KBDL 250451Z 02007KT 10SM BKN100 04/01 A3024 RMK AO2 SLP242 T00390006 401220022
KBDL 250351Z 36005KT 10SM BKN080 BKN200 05/01 A3024 RMK AO2 SLP242 T00500011
KBDL 250251Z 36004KT 10SM BKN080 OVC110 06/01 A3023 RMK AO2 SLP237 T00560011 50015
KBDL 250151Z 00000KT 10SM BKN110 05/02 A3023 RMK AO2 SLP238 T00500022
KBDL 250051Z 30004KT 10SM BKN100 OVC160 05/04 A3021 RMK AO2 PRESRR SLP231 T00500044
KBDL 242351Z 00000KT 10SM OVC095 06/04 A3019 RMK AO2 RAE11B36E48 SLP223 P0000 60004 T00560039 10094 20056 53006
KBDL 242251Z 28006KT 10SM -RA OVC080 06/02 A3017 RMK AO2 SLP219 P0002 T00560022
KBDL 242151Z 27004KT 8SM -RA OVC080 07/03 A3017 RMK AO2 RAB25 SLP218 P0001 T00670033
KBDL 242051Z 28006KT 10SM BKN070 OVC080 07/02 A3017 RMK AO2 RAE1958B21E32 SLP216 P0000 60001 T00720022 53005
KBDL 241951Z 32006KT 10SM -RA SCT065 OVC085 08/02 A3013 RMK AO2 SLP205 P0001 T00780022
KBDL 241851Z 35005KT 10SM -RA SCT060 OVC080 09/01 A3014 RMK AO2 RAB37 SLP206 P0000 T00890011
KBDL 241751Z 30009KT 10SM BKN090 OVC180 09/01 A3015 RMK AO2 SLP211 T00940011 10122 20022 53005
KBDL 241651Z 33012KT 10SM SCT110 BKN180 11/02 A3014 RMK AO2 SLP207 T01060022
KBDL 241551Z 31013KT 10SM FEW035 BKN180 12/02 A3014 RMK AO2 SLP208 T01170022
KBDL 241451Z 32013G19KT 10SM FEW031 FEW150 10/03 A3013 RMK AO2 SLP205 T01000028 50001
KBDL 241351Z 32009G19KT 10SM FEW028 SCT250 09/03 A3014 RMK AO2 SLP207 T00940033